Time;durP1;ratioP1;P1;durP2;ratioP2;P2;SDS_P1;SDS_P2;PMS_P1;PMS_P2;Temp;Humidity;BMP_temperature;BMP_pressure;BME280_temperature;BME280_humidity;BME280_pressure;Samples;Min_cycle;Max_cycle;Signal;HPM_P1;HPM_P2
2022/06/27 00:02:24;;;;;;;5.55;3.10;;;18.00;99.90;;;;;;5009040;28;20050;-46
2022/06/27 00:04:51;;;;;;;4.15;2.90;;;18.00;99.90;;;;;;5012602;28;20064;-49
2022/06/27 00:07:17;;;;;;;5.13;3.35;;;18.00;99.90;;;;;;5007379;28;20448;-49
2022/06/27 00:09:43;;;;;;;6.40;3.10;;;18.00;99.90;;;;;;5007618;28;20482;-45
2022/06/27 00:12:09;;;;;;;4.70;2.70;;;18.00;99.90;;;;;;5013858;28;20516;-46
2022/06/27 00:14:36;;;;;;;5.10;2.97;;;18.00;99.90;;;;;;5013256;28;20045;-47
2022/06/27 00:17:03;;;;;;;4.05;2.58;;;18.00;99.90;;;;;;5007075;28;20121;-47
2022/06/27 00:19:29;;;;;;;4.85;2.67;;;18.00;99.90;;;;;;5007985;28;20042;-47
2022/06/27 00:21:55;;;;;;;5.95;3.78;;;17.90;99.90;;;;;;5011295;28;20048;-47
2022/06/27 00:24:21;;;;;;;6.60;3.75;;;17.80;99.90;;;;;;5009239;28;20103;-45
2022/06/27 00:26:48;;;;;;;6.15;2.97;;;17.80;99.90;;;;;;5015904;28;20038;-46
2022/06/27 00:29:14;;;;;;;5.97;3.17;;;17.80;99.90;;;;;;5011543;28;20045;-46
2022/06/27 00:31:40;;;;;;;5.72;3.25;;;17.80;99.90;;;;;;5007649;28;20137;-48
2022/06/27 00:34:06;;;;;;;5.63;4.07;;;17.80;99.90;;;;;;5005967;28;20052;-48
2022/06/27 00:36:31;;;;;;;6.65;3.72;;;17.80;99.90;;;;;;5010037;28;20079;-47
2022/06/27 00:38:57;;;;;;;5.57;3.50;;;17.80;99.90;;;;;;4984978;28;20129;-45
2022/06/27 00:41:23;;;;;;;4.80;3.40;;;17.80;99.90;;;;;;5006463;28;20129;-50
2022/06/27 00:43:49;;;;;;;6.25;3.65;;;17.80;99.90;;;;;;5004145;28;20096;-47
2022/06/27 00:46:14;;;;;;;6.97;3.78;;;17.80;99.90;;;;;;5009767;28;20058;-48
2022/06/27 00:48:40;;;;;;;5.45;3.72;;;17.80;99.90;;;;;;5007378;28;20066;-48
2022/06/27 00:51:06;;;;;;;5.75;3.22;;;17.80;99.90;;;;;;5011135;28;20057;-49
2022/06/27 00:53:33;;;;;;;6.40;3.60;;;17.80;99.90;;;;;;5005561;28;20038;-47
2022/06/27 00:56:00;;;;;;;6.50;3.72;;;17.80;99.90;;;;;;5013508;28;20064;-46
2022/06/27 00:58:25;;;;;;;7.40;3.40;;;17.80;99.90;;;;;;5014415;28;20070;-46
2022/06/27 01:00:51;;;;;;;7.85;4.30;;;17.80;99.90;;;;;;5009875;28;20375;-45
2022/06/27 01:03:17;;;;;;;7.35;3.58;;;17.80;99.90;;;;;;5011373;28;20046;-50
2022/06/27 01:05:51;;;;;;;6.43;3.92;;;17.80;99.90;;;;;;5011544;28;20044;-47
2022/06/27 01:08:21;;;;;;;5.28;4.15;;;17.70;99.90;;;;;;5006376;28;20155;-49
2022/06/27 01:10:48;;;;;;;7.72;4.30;;;17.70;99.90;;;;;;5007794;28;20409;-50
2022/06/27 01:13:15;;;;;;;5.30;3.22;;;17.70;99.90;;;;;;5008468;28;20041;-46
2022/06/27 01:15:41;;;;;;;5.68;3.50;;;17.70;99.90;;;;;;5009104;28;20049;-45
2022/06/27 01:18:08;;;;;;;7.75;4.80;;;17.70;99.90;;;;;;5009322;28;20096;-46
2022/06/27 01:20:34;;;;;;;7.32;4.20;;;17.70;99.90;;;;;;5006505;28;20103;-51
2022/06/27 01:23:00;;;;;;;7.50;4.40;;;17.70;99.90;;;;;;5006927;28;20510;-45
2022/06/27 01:25:27;;;;;;;6.75;4.50;;;17.70;99.90;;;;;;5005890;28;20049;-51
2022/06/27 01:27:52;;;;;;;5.43;3.70;;;17.70;99.90;;;;;;5013042;28;20046;-49
2022/06/27 01:30:19;;;;;;;6.15;3.72;;;17.70;99.90;;;;;;5005417;28;20220;-47
2022/06/27 01:32:44;;;;;;;6.15;3.38;;;17.70;99.90;;;;;;5008452;28;20469;-46
2022/06/27 01:35:10;;;;;;;5.90;3.70;;;17.70;99.90;;;;;;5006583;28;20073;-47
2022/06/27 01:37:36;;;;;;;5.07;3.58;;;17.70;99.90;;;;;;5005746;28;20099;-52
2022/06/27 01:40:02;;;;;;;6.72;4.15;;;17.60;99.90;;;;;;5007168;28;20133;-49
2022/06/27 01:42:28;;;;;;;6.90;4.93;;;17.60;99.90;;;;;;5011696;28;20029;-47
2022/06/27 01:44:54;;;;;;;6.70;4.07;;;17.50;99.90;;;;;;5008742;28;20069;-50
2022/06/27 01:47:20;;;;;;;5.97;4.30;;;17.50;99.90;;;;;;5006814;28;20038;-47
2022/06/27 01:49:46;;;;;;;6.22;4.40;;;17.40;99.90;;;;;;5011609;28;20332;-48
2022/06/27 01:52:14;;;;;;;5.95;4.75;;;17.40;99.90;;;;;;5002579;28;21397;-47
2022/06/27 01:54:41;;;;;;;8.32;4.85;;;17.40;99.90;;;;;;5014614;28;20462;-49
2022/06/27 01:57:08;;;;;;;10.18;4.35;;;17.50;99.90;;;;;;5008861;28;20042;-45
2022/06/27 01:59:34;;;;;;;5.88;3.70;;;17.50;99.90;;;;;;5011427;28;20037;-45
2022/06/27 02:02:02;;;;;;;5.63;3.80;;;17.60;99.90;;;;;;5005829;28;20100;-48
2022/06/27 02:04:30;;;;;;;6.70;4.28;;;17.60;99.90;;;;;;5005758;28;20172;-48
2022/06/27 02:06:57;;;;;;;8.68;4.13;;;17.50;99.90;;;;;;5003006;28;20042;-50
2022/06/27 02:09:24;;;;;;;6.72;4.65;;;17.50;99.90;;;;;;5005769;28;20038;-48
2022/06/27 02:11:51;;;;;;;9.60;4.78;;;17.50;99.90;;;;;;5024947;28;20065;-48
2022/06/27 02:14:18;;;;;;;6.38;4.63;;;17.50;99.90;;;;;;5008802;28;20479;-51
2022/06/27 02:16:44;;;;;;;7.65;4.03;;;17.60;99.90;;;;;;5010138;28;20077;-46
2022/06/27 02:19:17;;;;;;;7.50;4.18;;;17.60;99.90;;;;;;5015474;28;20103;-49
2022/06/27 02:21:43;;;;;;;8.40;4.88;;;17.60;99.90;;;;;;5013930;28;20572;-50
2022/06/27 02:24:10;;;;;;;8.32;5.38;;;17.60;99.90;;;;;;5008011;28;20046;-49
2022/06/27 02:26:37;;;;;;;5.28;4.32;;;17.60;99.90;;;;;;5011232;28;20048;-46
2022/06/27 02:29:02;;;;;;;8.68;5.32;;;17.60;99.90;;;;;;5011369;28;20045;-46
2022/06/27 02:31:29;;;;;;;7.63;4.82;;;17.60;99.90;;;;;;5011289;28;20032;-46
2022/06/27 02:33:56;;;;;;;5.68;4.10;;;17.60;99.90;;;;;;5010501;28;20041;-47
2022/06/27 02:36:36;;;;;;;5.40;3.78;;;17.60;99.90;;;;;;5010865;28;20133;-47
2022/06/27 02:39:03;;;;;;;7.13;4.93;;;17.60;99.90;;;;;;5005487;28;20049;-47
2022/06/27 02:41:32;;;;;;;6.68;4.00;;;17.60;99.90;;;;;;5010705;28;20481;-46
2022/06/27 02:44:05;;;;;;;6.10;4.50;;;17.60;99.90;;;;;;5013198;28;20050;-53
2022/06/27 02:46:30;;;;;;;4.38;3.13;;;17.60;99.90;;;;;;5013265;28;20072;-48
2022/06/27 02:48:58;;;;;;;6.45;3.53;;;17.60;99.90;;;;;;5014629;28;20061;-49
2022/06/27 02:51:35;;;;;;;5.07;3.65;;;17.60;99.90;;;;;;5015514;28;20049;-46
2022/06/27 02:54:04;;;;;;;6.95;4.20;;;17.60;99.90;;;;;;5014748;28;20046;-45
2022/06/27 02:56:31;;;;;;;8.15;5.10;;;17.60;99.90;;;;;;5009508;28;20053;-46
2022/06/27 02:59:05;;;;;;;13.20;5.10;;;17.60;99.90;;;;;;5009840;28;20038;-49
2022/06/27 03:01:32;;;;;;;7.50;4.93;;;17.60;99.90;;;;;;5010557;28;20042;-48
2022/06/27 03:03:59;;;;;;;7.80;4.85;;;17.60;99.90;;;;;;5009792;28;20076;-47
2022/06/27 03:06:25;;;;;;;6.80;4.03;;;17.60;99.90;;;;;;5008999;28;20529;-46
2022/06/27 03:08:51;;;;;;;6.03;4.60;;;17.60;99.90;;;;;;5009935;28;20034;-46
2022/06/27 03:11:20;;;;;;;5.35;4.20;;;17.60;99.90;;;;;;5008089;28;20072;-48
2022/06/27 03:13:47;;;;;;;6.60;4.07;;;17.60;99.90;;;;;;5011856;28;20049;-47
2022/06/27 03:16:17;;;;;;;8.90;5.65;;;17.60;99.90;;;;;;5008783;28;20494;-47
2022/06/27 03:18:43;;;;;;;7.20;4.47;;;17.60;99.90;;;;;;5013264;28;20818;-48
2022/06/27 03:21:11;;;;;;;7.88;4.80;;;17.50;99.90;;;;;;5008444;28;20048;-47
2022/06/27 03:23:38;;;;;;;6.35;4.80;;;17.50;99.90;;;;;;5011735;28;20113;-50
2022/06/27 03:26:03;;;;;;;5.82;4.50;;;17.50;99.90;;;;;;5012273;28;20058;-47
2022/06/27 03:28:29;;;;;;;6.68;5.25;;;17.50;99.90;;;;;;5009565;28;20042;-47
2022/06/27 03:30:55;;;;;;;6.50;4.50;;;17.40;99.90;;;;;;5015681;28;20482;-47
2022/06/27 03:33:21;;;;;;;5.20;3.60;;;17.30;99.90;;;;;;5006783;28;20049;-47
2022/06/27 03:35:46;;;;;;;6.20;4.85;;;17.20;99.90;;;;;;5013116;28;20548;-49
2022/06/27 03:38:12;;;;;;;8.95;5.22;;;17.20;99.90;;;;;;5012477;28;20037;-46
2022/06/27 03:40:38;;;;;;;9.63;5.05;;;17.30;99.90;;;;;;5019380;28;20033;-49
2022/06/27 03:43:04;;;;;;;8.77;5.68;;;17.30;99.90;;;;;;5009742;28;20521;-46
2022/06/27 03:45:30;;;;;;;8.15;5.07;;;17.30;99.90;;;;;;5010421;28;20050;-46
2022/06/27 03:47:59;;;;;;;7.97;5.05;;;17.30;99.90;;;;;;5012983;28;20553;-46
2022/06/27 03:50:26;;;;;;;7.25;4.57;;;17.30;99.90;;;;;;5010672;28;20499;-47
2022/06/27 03:52:54;;;;;;;6.72;5.07;;;17.30;99.90;;;;;;5008015;28;20123;-47
2022/06/27 03:55:20;;;;;;;7.65;4.70;;;17.30;99.90;;;;;;5014740;28;20135;-49
2022/06/27 03:57:55;;;;;;;6.78;4.50;;;17.40;99.90;;;;;;5009280;28;20037;-50
2022/06/27 04:00:26;;;;;;;7.00;5.15;;;17.40;99.90;;;;;;5009195;28;20050;-48
2022/06/27 04:02:52;;;;;;;7.50;5.20;;;17.40;99.90;;;;;;5000153;28;20799;-46
2022/06/27 04:05:18;;;;;;;6.95;5.22;;;17.40;99.90;;;;;;5010505;28;20053;-45
2022/06/27 04:07:44;;;;;;;6.80;4.95;;;17.40;99.90;;;;;;5010934;28;20477;-45
2022/06/27 04:10:12;;;;;;;6.05;4.78;;;17.40;99.90;;;;;;5008608;28;20041;-46
2022/06/27 04:12:41;;;;;;;6.97;4.68;;;17.40;99.90;;;;;;5016442;28;20458;-50
2022/06/27 04:15:08;;;;;;;7.60;5.53;;;17.40;99.90;;;;;;5008352;28;20057;-46
2022/06/27 04:17:34;;;;;;;5.88;4.20;;;17.50;99.90;;;;;;5007156;28;20136;-48
2022/06/27 04:20:00;;;;;;;8.38;4.40;;;17.50;99.90;;;;;;5009202;28;20613;-46
2022/06/27 04:22:28;;;;;;;9.02;5.18;;;17.50;99.90;;;;;;5006740;28;20121;-49
2022/06/27 04:24:54;;;;;;;6.13;4.28;;;17.50;99.90;;;;;;5006020;28;20504;-46
2022/06/27 04:27:20;;;;;;;7.07;4.00;;;17.50;99.90;;;;;;5013563;28;20046;-49
2022/06/27 04:29:50;;;;;;;7.60;4.30;;;17.50;99.90;;;;;;5005801;28;20053;-44
2022/06/27 04:32:20;;;;;;;7.10;3.80;;;17.50;99.90;;;;;;5012964;28;20041;-50
2022/06/27 04:34:46;;;;;;;5.05;3.60;;;17.60;99.90;;;;;;5010168;28;20113;-48
2022/06/27 04:37:12;;;;;;;4.03;2.90;;;17.50;99.90;;;;;;5006224;28;20037;-49
2022/06/27 04:39:38;;;;;;;5.25;3.40;;;17.50;99.90;;;;;;5009362;28;20056;-50
2022/06/27 04:42:06;;;;;;;6.60;3.13;;;17.50;99.90;;;;;;5007766;28;20049;-48
2022/06/27 04:44:36;;;;;;;5.47;3.40;;;17.50;99.90;;;;;;5007840;28;20029;-47
2022/06/27 04:47:07;;;;;;;5.97;4.13;;;17.50;99.90;;;;;;5008365;28;20048;-47
2022/06/27 04:49:34;;;;;;;7.35;3.63;;;17.60;99.90;;;;;;5014051;28;20065;-46
2022/06/27 04:52:00;;;;;;;6.68;4.30;;;17.60;99.90;;;;;;5014013;28;20046;-48
2022/06/27 04:54:26;;;;;;;6.35;3.85;;;17.60;99.90;;;;;;5006020;28;20050;-43
2022/06/27 04:56:53;;;;;;;5.53;3.63;;;17.60;99.90;;;;;;5007610;28;20081;-47
2022/06/27 04:59:20;;;;;;;6.07;3.55;;;17.70;99.90;;;;;;5007045;28;20052;-50
2022/06/27 05:01:47;;;;;;;5.43;3.38;;;17.60;99.90;;;;;;5011192;28;20080;-46
2022/06/27 05:04:13;;;;;;;5.70;3.28;;;17.70;99.90;;;;;;5009092;28;20049;-48
2022/06/27 05:06:38;;;;;;;7.72;4.53;;;17.70;99.90;;;;;;5008124;28;20045;-45
2022/06/27 05:09:04;;;;;;;6.18;4.32;;;17.70;99.90;;;;;;5014061;28;20037;-45
2022/06/27 05:11:30;;;;;;;5.22;3.20;;;17.70;99.90;;;;;;5007730;28;20068;-48
2022/06/27 05:13:55;;;;;;;4.40;3.40;;;17.80;99.90;;;;;;5011337;28;20054;-46
2022/06/27 05:16:21;;;;;;;6.30;4.22;;;17.80;99.90;;;;;;4998520;28;20049;-47
2022/06/27 05:18:47;;;;;;;6.82;4.28;;;17.80;99.90;;;;;;4993728;28;20068;-48
2022/06/27 05:21:12;;;;;;;5.97;4.10;;;17.80;99.90;;;;;;5006549;28;20453;-45
2022/06/27 05:23:38;;;;;;;6.60;4.28;;;17.80;99.90;;;;;;5010329;28;20089;-46
2022/06/27 05:26:07;;;;;;;5.65;3.83;;;17.90;99.90;;;;;;5008025;28;20046;-45
2022/06/27 05:28:32;;;;;;;6.90;4.13;;;17.90;99.90;;;;;;5005150;28;20044;-44
2022/06/27 05:30:58;;;;;;;6.85;4.50;;;17.90;99.90;;;;;;5005341;28;20105;-44
2022/06/27 05:33:25;;;;;;;5.97;3.95;;;17.90;99.90;;;;;;4941722;28;22205;-48
2022/06/27 05:35:52;;;;;;;7.75;4.07;;;18.00;99.90;;;;;;5004382;28;20040;-44
2022/06/27 05:38:18;;;;;;;6.35;4.45;;;18.00;99.90;;;;;;5009034;28;20171;-47
2022/06/27 05:40:45;;;;;;;5.63;4.10;;;18.00;99.90;;;;;;5010421;28;20038;-44
2022/06/27 05:43:14;;;;;;;5.05;3.25;;;18.00;99.90;;;;;;5008662;28;20053;-47
2022/06/27 05:45:40;;;;;;;5.70;3.45;;;18.00;99.90;;;;;;5008410;28;20045;-46
2022/06/27 05:48:07;;;;;;;6.50;4.05;;;18.00;99.90;;;;;;5011203;28;20498;-46
2022/06/27 05:50:33;;;;;;;6.18;3.70;;;18.00;99.90;;;;;;5016704;28;20034;-48
2022/06/27 05:53:00;;;;;;;6.13;3.92;;;18.00;99.90;;;;;;5014456;28;20037;-49
2022/06/27 05:55:28;;;;;;;7.07;3.88;;;18.00;99.90;;;;;;5015347;28;20038;-48
2022/06/27 05:57:57;;;;;;;6.07;4.32;;;18.10;99.90;;;;;;5011166;28;20026;-49
2022/06/27 06:00:24;;;;;;;6.03;4.25;;;18.10;99.90;;;;;;5006141;28;20038;-49
2022/06/27 06:02:52;;;;;;;7.15;4.22;;;18.10;99.90;;;;;;5007616;28;20441;-48
2022/06/27 06:05:18;;;;;;;7.22;4.63;;;18.10;99.90;;;;;;5003481;28;20465;-49
2022/06/27 06:07:44;;;;;;;7.75;4.32;;;18.10;99.90;;;;;;5010648;28;20045;-46
2022/06/27 06:10:10;;;;;;;6.13;4.10;;;18.10;99.90;;;;;;5006433;28;20068;-46
2022/06/27 06:12:36;;;;;;;5.60;4.18;;;18.10;99.90;;;;;;5009568;28;20057;-48
2022/06/27 06:15:03;;;;;;;6.57;3.78;;;18.20;99.90;;;;;;5008398;28;20125;-45
2022/06/27 06:17:34;;;;;;;5.97;3.60;;;18.20;99.90;;;;;;5009980;28;20049;-47
2022/06/27 06:20:01;;;;;;;6.97;3.85;;;18.20;99.90;;;;;;5006355;28;20463;-46
2022/06/27 06:22:27;;;;;;;5.45;3.70;;;18.20;99.90;;;;;;5013701;28;20053;-48
2022/06/27 06:24:54;;;;;;;5.82;3.95;;;18.20;99.90;;;;;;5008221;28;20038;-48
2022/06/27 06:27:21;;;;;;;5.18;3.30;;;18.20;99.90;;;;;;5009456;28;20488;-45
2022/06/27 06:29:47;;;;;;;6.03;3.88;;;18.20;99.90;;;;;;5005476;28;20061;-49
2022/06/27 06:32:13;;;;;;;5.47;3.97;;;18.20;99.90;;;;;;5012247;28;20104;-48
2022/06/27 06:34:40;;;;;;;8.18;3.92;;;18.20;99.90;;;;;;5005802;28;20379;-48
2022/06/27 06:37:06;;;;;;;5.53;3.58;;;18.20;99.90;;;;;;5009946;28;20042;-45
2022/06/27 06:39:32;;;;;;;5.43;3.78;;;18.20;99.90;;;;;;5012747;28;20084;-45
2022/06/27 06:41:58;;;;;;;4.65;3.70;;;18.20;99.90;;;;;;5018354;28;20045;-48
2022/06/27 06:44:24;;;;;;;5.75;3.53;;;18.20;99.90;;;;;;5007513;28;20038;-49
2022/06/27 06:46:55;;;;;;;5.22;3.80;;;18.20;99.90;;;;;;5005887;28;20045;-45
2022/06/27 06:49:21;;;;;;;5.40;3.65;;;18.30;99.90;;;;;;5010306;28;20130;-49
2022/06/27 06:51:47;;;;;;;6.18;3.63;;;18.40;99.90;;;;;;5011862;28;20253;-49
2022/06/27 06:54:15;;;;;;;6.30;4.57;;;18.40;99.90;;;;;;5008801;28;20486;-47
2022/06/27 06:56:41;;;;;;;6.15;4.18;;;18.40;99.90;;;;;;5009664;28;21149;-45
2022/06/27 06:59:07;;;;;;;6.80;4.10;;;18.40;99.90;;;;;;5007811;28;20470;-48
2022/06/27 07:01:35;;;;;;;5.00;4.18;;;18.40;99.90;;;;;;5009994;28;20090;-44
2022/06/27 07:04:02;;;;;;;6.65;4.25;;;18.50;99.90;;;;;;5012881;28;20153;-47
2022/06/27 07:06:29;;;;;;;7.55;4.03;;;18.50;99.90;;;;;;5003773;28;20393;-45
2022/06/27 07:08:57;;;;;;;4.32;3.35;;;18.50;99.90;;;;;;5000701;28;20068;-49
2022/06/27 07:11:25;;;;;;;5.22;3.80;;;18.40;99.90;;;;;;5001056;28;20034;-44
2022/06/27 07:13:51;;;;;;;4.65;3.80;;;18.40;99.90;;;;;;5004401;28;20088;-48
2022/06/27 07:16:21;;;;;;;6.85;3.55;;;18.30;99.90;;;;;;5007610;28;20145;-49
2022/06/27 07:18:48;;;;;;;5.97;3.60;;;18.40;99.90;;;;;;5006790;28;20118;-52
2022/06/27 07:21:16;;;;;;;4.28;3.22;;;18.30;99.90;;;;;;5018379;28;20450;-48
2022/06/27 07:23:44;;;;;;;5.75;3.47;;;18.30;99.90;;;;;;5010382;28;20046;-47
2022/06/27 07:26:10;;;;;;;4.93;3.15;;;18.20;99.90;;;;;;5009757;28;20042;-46
2022/06/27 07:28:36;;;;;;;5.97;2.90;;;18.20;99.90;;;;;;5020653;28;20041;-50
2022/06/27 07:31:08;;;;;;;3.53;2.58;;;18.20;99.90;;;;;;4994979;28;20088;-50
2022/06/27 07:33:36;;;;;;;4.47;2.15;;;18.30;99.90;;;;;;5000127;28;20048;-49
2022/06/27 07:36:03;;;;;;;3.85;2.33;;;18.30;99.90;;;;;;5009385;28;20044;-48
2022/06/27 07:38:32;;;;;;;4.22;1.85;;;18.40;99.90;;;;;;5014529;28;20092;-44
2022/06/27 07:40:58;;;;;;;2.58;1.52;;;18.50;99.90;;;;;;5013845;28;20054;-46
2022/06/27 07:43:25;;;;;;;3.85;1.77;;;18.50;99.90;;;;;;5013094;28;20083;-45
2022/06/27 07:45:51;;;;;;;3.25;1.73;;;18.50;99.90;;;;;;5022074;28;20444;-46
2022/06/27 07:48:20;;;;;;;4.25;1.95;;;18.60;99.90;;;;;;5015175;28;20045;-48
2022/06/27 07:50:46;;;;;;;1.90;1.15;;;18.60;99.90;;;;;;5007440;28;20081;-46
2022/06/27 07:53:18;;;;;;;2.90;1.70;;;18.70;99.90;;;;;;5006063;28;20026;-48
2022/06/27 07:55:49;;;;;;;5.20;1.42;;;18.70;99.90;;;;;;5017765;28;20120;-45
2022/06/27 07:58:17;;;;;;;2.17;1.33;;;18.80;99.90;;;;;;5010535;28;20100;-47
2022/06/27 08:00:47;;;;;;;2.13;1.15;;;18.90;99.90;;;;;;5007377;28;20299;-48
2022/06/27 08:05:58;;;;;;;1.80;1.20;;;19.00;99.90;;;;;;5013612;28;20060;-49
2022/06/27 08:08:26;;;;;;;2.00;1.10;;;19.10;99.90;;;;;;5014163;28;20042;-47
2022/06/27 08:10:53;;;;;;;3.33;1.23;;;19.10;99.90;;;;;;5009088;28;20091;-49
2022/06/27 08:13:18;;;;;;;2.88;1.40;;;19.10;99.90;;;;;;5008029;28;20065;-46
2022/06/27 08:15:47;;;;;;;4.30;2.05;;;19.20;99.90;;;;;;5009096;28;20069;-47
2022/06/27 08:18:14;;;;;;;2.72;1.55;;;19.10;99.90;;;;;;5014894;28;20144;-47
2022/06/27 08:20:40;;;;;;;2.33;1.30;;;19.10;99.90;;;;;;5006484;28;20410;-44
2022/06/27 08:23:07;;;;;;;3.10;1.80;;;19.00;99.90;;;;;;5008622;28;20041;-45
2022/06/27 08:25:34;;;;;;;3.78;1.40;;;19.00;99.90;;;;;;5006374;28;20120;-44
2022/06/27 08:28:00;;;;;;;3.35;1.35;;;18.90;99.90;;;;;;5010725;28;20041;-46
2022/06/27 08:30:27;;;;;;;2.72;1.00;;;18.90;99.90;;;;;;5010545;28;20077;-49
2022/06/27 08:32:55;;;;;;;2.17;1.13;;;19.00;99.90;;;;;;5015212;28;20048;-46
2022/06/27 08:35:22;;;;;;;2.63;1.15;;;19.00;99.90;;;;;;5009996;28;20809;-48
2022/06/27 08:37:50;;;;;;;1.90;1.33;;;19.00;99.90;;;;;;5011713;28;20510;-46
2022/06/27 08:40:17;;;;;;;2.83;1.55;;;19.10;99.90;;;;;;5007400;28;20057;-50
2022/06/27 08:42:47;;;;;;;4.82;1.70;;;19.30;99.90;;;;;;5005536;28;20073;-45
2022/06/27 08:45:17;;;;;;;3.10;1.70;;;19.40;99.90;;;;;;5010427;28;20054;-44
2022/06/27 08:47:44;;;;;;;2.97;1.60;;;19.60;99.90;;;;;;5011107;28;20050;-46
2022/06/27 08:50:11;;;;;;;2.72;1.40;;;19.80;99.90;;;;;;5009308;28;20044;-50
2022/06/27 08:52:41;;;;;;;3.05;1.45;;;20.00;99.90;;;;;;5006102;28;20046;-47
2022/06/27 08:55:10;;;;;;;3.03;1.63;;;20.10;99.90;;;;;;5009084;28;20441;-47
2022/06/27 08:57:39;;;;;;;2.85;1.52;;;20.30;99.90;;;;;;5005471;28;20059;-51
2022/06/27 09:00:07;;;;;;;2.40;1.30;;;20.40;99.90;;;;;;5010374;28;20033;-48
2022/06/27 09:02:41;;;;;;;3.92;1.73;;;20.50;99.90;;;;;;5009707;28;20569;-51
2022/06/27 09:05:15;;;;;;;4.10;1.90;;;20.50;99.90;;;;;;5010018;28;20046;-46
2022/06/27 09:08:04;;;;;;;3.80;1.88;;;20.50;99.90;;;;;;5000694;28;20061;-47
2022/06/27 09:10:39;;;;;;;3.72;2.50;;;20.60;99.90;;;;;;5002669;28;20122;-47
2022/06/27 09:13:16;;;;;;;4.38;2.35;;;20.50;99.90;;;;;;5009039;28;20038;-49
2022/06/27 09:16:02;;;;;;;6.18;2.60;;;20.50;99.90;;;;;;5015179;28;20049;-48
2022/06/27 09:18:30;;;;;;;6.57;2.15;;;20.50;99.90;;;;;;5002192;28;20050;-47
2022/06/27 09:21:03;;;;;;;4.93;3.00;;;20.50;99.90;;;;;;5007756;28;20042;-49
2022/06/27 09:23:42;;;;;;;4.72;3.10;;;20.50;99.90;;;;;;5008087;28;20103;-45
2022/06/27 09:26:25;;;;;;;5.68;4.00;;;20.70;99.90;;;;;;5021050;28;20042;-48
2022/06/27 09:28:53;;;;;;;8.13;4.45;;;20.90;99.90;;;;;;5009995;28;20030;-49
2022/06/27 09:31:28;;;;;;;6.57;3.70;;;21.00;99.90;;;;;;5006001;28;20038;-49
2022/06/27 09:34:09;;;;;;;6.15;4.07;;;21.10;99.90;;;;;;5012663;28;20053;-49
2022/06/27 09:36:39;;;;;;;4.30;3.17;;;21.20;99.90;;;;;;5010330;28;20354;-50
2022/06/27 09:39:16;;;;;;;5.38;3.97;;;21.30;99.90;;;;;;5016473;28;20053;-47
2022/06/27 09:41:45;;;;;;;6.75;4.60;;;21.30;99.90;;;;;;5005790;28;20099;-49
2022/06/27 09:44:15;;;;;;;5.50;4.15;;;21.40;99.60;;;;;;5010980;28;20528;-47
2022/06/27 09:46:46;;;;;;;4.78;3.72;;;21.30;99.50;;;;;;5011168;28;20084;-48
2022/06/27 09:49:12;;;;;;;6.85;4.50;;;21.30;99.90;;;;;;5017695;28;20053;-50
2022/06/27 09:51:42;;;;;;;6.88;4.47;;;21.30;99.90;;;;;;5014489;28;20046;-49
2022/06/27 09:54:11;;;;;;;6.85;5.00;;;21.40;99.90;;;;;;5015518;28;20033;-48
2022/06/27 09:56:41;;;;;;;9.23;5.45;;;21.40;99.70;;;;;;5031365;28;20136;-50
2022/06/27 09:59:10;;;;;;;6.13;4.15;;;21.30;99.40;;;;;;5011112;28;20104;-48
2022/06/27 10:01:37;;;;;;;6.28;4.07;;;21.30;99.40;;;;;;5008234;28;20584;-48
2022/06/27 10:04:03;;;;;;;5.15;3.75;;;21.30;99.20;;;;;;5009140;28;20488;-49
2022/06/27 10:06:30;;;;;;;6.32;3.60;;;21.30;99.10;;;;;;5010214;28;20042;-49
2022/06/27 10:08:56;;;;;;;6.30;4.00;;;21.40;99.00;;;;;;5006127;28;20502;-48
2022/06/27 10:11:22;;;;;;;5.65;4.00;;;21.30;99.40;;;;;;5009843;28;20033;-47
2022/06/27 10:14:10;;;;;;;7.15;3.88;;;21.30;99.20;;;;;;5012864;28;20473;-46
2022/06/27 10:16:56;;;;;;;5.07;4.03;;;21.20;98.70;;;;;;5010339;28;20042;-49
2022/06/27 10:19:27;;;;;;;4.28;2.67;;;21.10;98.10;;;;;;5015177;28;20053;-46
2022/06/27 10:21:54;;;;;;;5.72;3.42;;;21.00;98.80;;;;;;5007768;28;20040;-47
2022/06/27 10:24:26;;;;;;;5.90;3.13;;;21.10;98.90;;;;;;5015471;28;20100;-45
2022/06/27 10:26:54;;;;;;;4.47;2.60;;;21.10;98.70;;;;;;5017459;28;20045;-46
2022/06/27 10:29:34;;;;;;;7.63;3.33;;;21.10;98.50;;;;;;5007912;28;20034;-46
2022/06/27 10:32:02;;;;;;;4.32;3.40;;;21.10;97.70;;;;;;5005702;28;20041;-47
2022/06/27 10:34:40;;;;;;;4.57;3.13;;;21.10;97.90;;;;;;5008419;28;20521;-45
2022/06/27 10:37:21;;;;;;;4.60;3.00;;;21.10;96.70;;;;;;5005072;28;20096;-48
2022/06/27 10:39:51;;;;;;;5.60;3.20;;;21.10;96.50;;;;;;5017352;28;20077;-49
2022/06/27 10:42:53;;;;;;;3.40;2.65;;;21.10;97.00;;;;;;5010636;28;20037;-46
2022/06/27 10:45:27;;;;;;;6.68;3.35;;;21.20;96.80;;;;;;4952807;28;20114;-47
2022/06/27 10:47:57;;;;;;;7.40;3.60;;;21.20;96.70;;;;;;4999204;28;20120;-50
2022/06/27 10:50:26;;;;;;;4.63;3.20;;;21.20;97.10;;;;;;5006399;28;20108;-47
2022/06/27 10:53:27;;;;;;;5.82;3.33;;;21.30;97.30;;;;;;5007472;28;20053;-44
2022/06/27 10:55:53;;;;;;;6.82;3.00;;;21.40;96.00;;;;;;5006535;28;20053;-45
2022/06/27 10:58:29;;;;;;;5.03;3.10;;;21.50;96.10;;;;;;5012879;28;20054;-46
2022/06/27 11:01:15;;;;;;;4.88;2.75;;;21.60;95.50;;;;;;5012707;28;20103;-45
2022/06/27 11:03:41;;;;;;;6.03;3.95;;;21.60;95.70;;;;;;5025277;28;20049;-47
2022/06/27 11:06:08;;;;;;;5.35;4.15;;;21.60;95.50;;;;;;5019956;28;20038;-47
2022/06/27 11:08:37;;;;;;;5.35;3.50;;;21.60;95.40;;;;;;5017084;28;20077;-44
2022/06/27 11:11:04;;;;;;;6.72;4.57;;;21.60;95.60;;;;;;5018787;28;20546;-47
2022/06/27 11:13:46;;;;;;;5.90;4.10;;;21.60;95.50;;;;;;5013890;28;20081;-47
2022/06/27 11:16:18;;;;;;;5.43;4.25;;;21.70;95.20;;;;;;5016633;28;20041;-46
2022/06/27 11:18:53;;;;;;;7.30;4.70;;;21.90;95.00;;;;;;5012357;28;20474;-45
2022/06/27 11:21:21;;;;;;;7.20;5.20;;;22.10;94.80;;;;;;5015262;28;20050;-47
2022/06/27 11:24:00;;;;;;;7.07;5.22;;;22.20;95.10;;;;;;5010803;28;20053;-46
2022/06/27 11:26:29;;;;;;;8.38;5.35;;;22.30;94.60;;;;;;5007603;28;20109;-46
2022/06/27 11:31:58;;;;;;;9.55;5.10;;;22.40;93.90;;;;;;5016311;28;20061;-43
2022/06/27 11:34:25;;;;;;;9.82;4.13;;;22.50;93.90;;;;;;5017308;28;20740;-44
2022/06/27 11:36:52;;;;;;;5.03;3.28;;;22.60;93.50;;;;;;5016908;28;20044;-47
2022/06/27 11:39:32;;;;;;;6.20;3.65;;;22.60;92.80;;;;;;5014248;28;20037;-49
2022/06/27 11:42:09;;;;;;;6.55;3.92;;;22.60;91.50;;;;;;5013568;28;20042;-48
2022/06/27 11:44:36;;;;;;;6.40;4.18;;;22.50;91.90;;;;;;5021146;28;20037;-44
2022/06/27 11:47:04;;;;;;;6.05;4.03;;;22.40;91.70;;;;;;5027010;28;20061;-43
2022/06/27 11:49:32;;;;;;;5.60;2.78;;;22.40;91.20;;;;;;5008362;28;20050;-45
2022/06/27 11:52:03;;;;;;;6.72;3.17;;;22.40;90.90;;;;;;5010369;28;20052;-48
2022/06/27 11:54:44;;;;;;;6.05;2.95;;;22.50;90.50;;;;;;5015399;28;20060;-46
2022/06/27 11:57:26;;;;;;;5.28;3.00;;;22.70;88.60;;;;;;5008895;28;20041;-47
2022/06/27 11:59:54;;;;;;;9.85;2.70;;;23.00;88.00;;;;;;5006847;28;20038;-45
2022/06/27 12:02:34;;;;;;;8.07;2.20;;;23.30;85.30;;;;;;5016544;28;20042;-45
2022/06/27 12:05:06;;;;;;;5.07;3.00;;;23.60;83.20;;;;;;5012244;28;20065;-44
2022/06/27 12:07:47;;;;;;;6.40;2.35;;;23.80;81.80;;;;;;5009951;28;20112;-48
2022/06/27 12:10:14;;;;;;;4.80;2.38;;;23.80;79.60;;;;;;5003691;28;20042;-49
2022/06/27 12:12:44;;;;;;;3.97;2.17;;;23.70;78.10;;;;;;5011588;28;20440;-48
2022/06/27 12:15:20;;;;;;;4.80;3.00;;;23.70;76.80;;;;;;5010548;28;20566;-46
2022/06/27 12:17:46;;;;;;;4.95;2.65;;;23.50;76.10;;;;;;5011949;28;20064;-47
2022/06/27 12:20:11;;;;;;;4.07;2.45;;;23.30;78.40;;;;;;5014236;28;20470;-48
2022/06/27 12:22:37;;;;;;;4.40;2.30;;;23.10;80.20;;;;;;5007181;28;20030;-49
2022/06/27 12:25:03;;;;;;;4.05;2.83;;;23.00;80.60;;;;;;5010926;28;20046;-48
2022/06/27 12:27:29;;;;;;;4.05;2.58;;;23.00;79.30;;;;;;5018766;28;20038;-46
2022/06/27 12:29:55;;;;;;;5.32;2.45;;;22.90;79.00;;;;;;5015616;28;20038;-48
2022/06/27 12:32:21;;;;;;;3.45;2.08;;;22.90;79.10;;;;;;5007761;28;20077;-48
2022/06/27 12:34:48;;;;;;;4.28;2.17;;;22.80;79.80;;;;;;5016014;28;20418;-48
2022/06/27 12:37:14;;;;;;;5.88;2.63;;;22.80;79.60;;;;;;5000728;28;20038;-49
2022/06/27 12:39:40;;;;;;;5.50;3.05;;;22.70;79.60;;;;;;5008298;28;20056;-49
2022/06/27 12:42:05;;;;;;;4.68;3.03;;;22.60;80.80;;;;;;5012265;28;20046;-50
2022/06/27 12:44:31;;;;;;;4.70;2.60;;;22.40;81.90;;;;;;5002658;28;20329;-50
2022/06/27 12:46:57;;;;;;;5.03;3.00;;;22.30;82.70;;;;;;5000495;28;20053;-47
2022/06/27 12:49:23;;;;;;;5.03;3.10;;;22.20;82.80;;;;;;5004640;28;20121;-48
2022/06/27 12:51:49;;;;;;;7.22;2.58;;;22.10;83.30;;;;;;5006140;28;20042;-47
2022/06/27 12:54:15;;;;;;;4.05;2.95;;;22.00;85.00;;;;;;5005883;28;21790;-46
2022/06/27 12:56:40;;;;;;;5.22;2.30;;;22.00;86.30;;;;;;5003865;28;20029;-49
2022/06/27 12:59:06;;;;;;;4.57;2.38;;;21.90;85.40;;;;;;5005063;28;20416;-49
2022/06/27 13:01:32;;;;;;;4.10;2.30;;;21.80;86.30;;;;;;5008833;28;20129;-50